createdAt,value
2023-04-28T00:02:03.143Z,101476.38
2023-04-28T00:04:29.798Z,101474.22
2023-04-28T00:06:56.635Z,101474.22
2023-04-28T00:09:23.051Z,101465.19
2023-04-28T00:11:49.606Z,101458.66
2023-04-28T00:14:16.248Z,101455.41
2023-04-28T00:16:43.046Z,101456.13
2023-04-28T00:19:09.735Z,101444.69
2023-04-28T00:21:36.147Z,101441.16
2023-04-28T00:24:02.550Z,101429.34
2023-04-28T00:26:28.966Z,101438.72
2023-04-28T00:28:55.409Z,101433.13
2023-04-28T00:31:21.924Z,101432.47
2023-04-28T00:33:48.356Z,101424.13
2023-04-28T00:36:14.808Z,101417.97
2023-04-28T00:38:41.226Z,101407.44
2023-04-28T00:41:09.907Z,101410.31
2023-04-28T00:43:49.422Z,101415.13
2023-04-28T00:46:28.593Z,101405.50
2023-04-28T00:48:55.509Z,101419.09
2023-04-28T00:51:22.179Z,101395.66
2023-04-28T00:53:48.801Z,101404.09
2023-04-28T00:56:15.624Z,101407.59
2023-04-28T00:58:42.931Z,101399.66
2023-04-28T01:01:10.752Z,101393.97
2023-04-28T01:03:39.657Z,101393.72
2023-04-28T01:06:07.470Z,101392.84
2023-04-28T01:08:35.574Z,101369.44
2023-04-28T01:11:02.128Z,101368.63
2023-04-28T01:13:28.975Z,101370.19
2023-04-28T01:15:56.203Z,101386.03
2023-04-28T01:18:22.918Z,101379.59
2023-04-28T01:20:49.374Z,101382.91
2023-04-28T01:23:16.706Z,101384.19
2023-04-28T01:25:43.456Z,101379.00
2023-04-28T01:28:10.876Z,101381.94
2023-04-28T01:30:37.491Z,101374.16
2023-04-28T01:33:03.986Z,101367.00
2023-04-28T01:35:31.042Z,101340.88
2023-04-28T01:37:57.515Z,101359.63
2023-04-28T01:40:23.982Z,101355.56
2023-04-28T01:42:51.003Z,101356.16
2023-04-28T01:45:17.410Z,101349.19
2023-04-28T01:47:43.969Z,101341.25
2023-04-28T01:50:11.396Z,101338.94
2023-04-28T01:52:37.957Z,101315.19
2023-04-28T01:55:04.921Z,101335.69
2023-04-28T01:57:31.764Z,101344.78
2023-04-28T01:59:59.587Z,101340.75
2023-04-28T02:02:26.302Z,101333.75
2023-04-28T02:04:52.960Z,101338.28
2023-04-28T02:07:19.445Z,101328.19
2023-04-28T02:09:46.211Z,101333.09
2023-04-28T02:12:12.656Z,101328.34
2023-04-28T02:14:39.516Z,101331.09
2023-04-28T02:17:06.088Z,101324.22
2023-04-28T02:19:32.520Z,101323.91
2023-04-28T02:21:58.985Z,101318.44
2023-04-28T02:24:25.471Z,101315.47
2023-04-28T02:26:51.903Z,101300.53
2023-04-28T02:29:18.305Z,101298.22
2023-04-28T02:31:44.762Z,101301.47
2023-04-28T02:34:11.385Z,101303.25
2023-04-28T02:36:39.200Z,101296.56
2023-04-28T02:39:05.689Z,101296.13
2023-04-28T02:41:34.569Z,101300.19
2023-04-28T02:44:01.041Z,101296.38
2023-04-28T02:46:27.438Z,101295.72
2023-04-28T02:48:53.903Z,101289.25
2023-04-28T02:51:20.571Z,101268.75
2023-04-28T02:53:47.068Z,101230.84
2023-04-28T02:56:13.539Z,101282.38
2023-04-28T02:58:40.001Z,101279.28
2023-04-28T03:01:06.431Z,101267.63
2023-04-28T03:03:33.609Z,101268.00
2023-04-28T03:06:00.198Z,101262.75
2023-04-28T03:08:26.866Z,101256.97
2023-04-28T03:10:53.298Z,101249.72
2023-04-28T03:13:19.791Z,101248.09
2023-04-28T03:15:46.184Z,101244.41
2023-04-28T03:18:12.577Z,101242.75
2023-04-28T03:20:39.021Z,101239.38
2023-04-28T03:23:05.474Z,101239.50
2023-04-28T03:25:32.055Z,101241.63
2023-04-28T03:27:58.481Z,101237.16
2023-04-28T03:30:24.901Z,101230.69
2023-04-28T03:32:51.422Z,101222.94
2023-04-28T03:35:17.974Z,101200.56
2023-04-28T03:37:44.587Z,101196.88
2023-04-28T03:40:11.762Z,101197.97
2023-04-28T03:42:38.161Z,101191.59
2023-04-28T03:45:04.866Z,101192.13
2023-04-28T03:47:31.320Z,101194.00
2023-04-28T03:49:58.870Z,101195.56
2023-04-28T03:52:26.015Z,101195.31
2023-04-28T03:54:52.472Z,101197.75
2023-04-28T03:57:18.951Z,101173.03
2023-04-28T03:59:45.894Z,101185.75
2023-04-28T04:02:12.359Z,101185.53
2023-04-28T04:04:39.147Z,101171.91
2023-04-28T04:07:06.329Z,101183.13
2023-04-28T04:09:32.782Z,101156.53
2023-04-28T04:11:59.193Z,101169.41
2023-04-28T04:14:25.773Z,101167.47
2023-04-28T04:16:52.243Z,101171.25
2023-04-28T04:19:18.715Z,101167.56
2023-04-28T04:21:45.129Z,101165.78
2023-04-28T04:24:11.616Z,101157.66
2023-04-28T04:26:38.022Z,101161.72
2023-04-28T04:29:04.558Z,101163.56
2023-04-28T04:31:31.047Z,101167.22
2023-04-28T04:33:57.872Z,101168.09
2023-04-28T04:36:24.313Z,101163.13
2023-04-28T04:38:52.484Z,101150.69
2023-04-28T04:41:20.770Z,101144.03
2023-04-28T04:43:47.233Z,101139.28
2023-04-28T04:46:13.972Z,101134.72
2023-04-28T04:48:40.434Z,101138.09
2023-04-28T04:51:07.082Z,101128.50
2023-04-28T04:53:33.494Z,101128.13
2023-04-28T04:56:00.696Z,101131.06
2023-04-28T04:58:27.209Z,101128.00
2023-04-28T05:00:53.607Z,101130.19
2023-04-28T05:03:20.501Z,101128.47
2023-04-28T05:05:47.151Z,101130.91
2023-04-28T05:08:13.732Z,101122.28
2023-04-28T05:10:40.387Z,101136.94
2023-04-28T05:13:07.065Z,101133.69
2023-04-28T05:15:33.498Z,101128.22
2023-04-28T05:18:00.157Z,101129.50
2023-04-28T05:20:26.662Z,101122.44
2023-04-28T05:22:53.112Z,101126.16
2023-04-28T05:25:19.550Z,101127.75
2023-04-28T05:27:46.348Z,101128.75
2023-04-28T05:30:13.050Z,101133.13
2023-04-28T05:32:39.549Z,101133.78
2023-04-28T05:35:06.309Z,101140.16
2023-04-28T05:37:32.720Z,101147.78
2023-04-28T05:39:59.162Z,101147.50
2023-04-28T05:42:25.592Z,101148.41
2023-04-28T05:44:52.018Z,101146.13
2023-04-28T05:47:18.493Z,101128.44
2023-04-28T05:49:44.983Z,101129.34
2023-04-28T05:52:11.437Z,101120.75
2023-04-28T05:54:37.963Z,101115.88
2023-04-28T05:57:04.530Z,101119.44
2023-04-28T05:59:31.525Z,101114.47
2023-04-28T06:01:57.976Z,101117.22
2023-04-28T06:04:25.387Z,101110.84
2023-04-28T06:06:52.413Z,101105.00
2023-04-28T06:09:19.130Z,101099.84
2023-04-28T06:11:45.761Z,101087.72
2023-04-28T06:14:12.176Z,101088.88
2023-04-28T06:16:38.658Z,101074.25
2023-04-28T06:19:05.306Z,101078.25
2023-04-28T06:21:32.306Z,101071.94
2023-04-28T06:23:58.821Z,101079.84
2023-04-28T06:26:25.490Z,101054.59
2023-04-28T06:28:52.195Z,101075.19
2023-04-28T06:31:18.721Z,101075.06
2023-04-28T06:33:45.212Z,101071.63
2023-04-28T06:36:13.978Z,101085.28
2023-04-28T06:38:42.973Z,101087.88
2023-04-28T06:41:11.541Z,101104.19
2023-04-28T06:43:38.209Z,101101.81
2023-04-28T06:46:04.759Z,101097.78
2023-04-28T06:48:31.545Z,101094.56
2023-04-28T06:50:58.072Z,101079.28
2023-04-28T06:53:24.496Z,101096.84
2023-04-28T06:55:51.492Z,101087.63
2023-04-28T06:58:17.965Z,101071.25
2023-04-28T07:00:44.528Z,101076.66
2023-04-28T07:03:11.502Z,101068.72
2023-04-28T07:05:38.107Z,101074.91
2023-04-28T07:08:04.782Z,101078.50
2023-04-28T07:10:31.264Z,101078.16
2023-04-28T07:12:59.051Z,101085.81
2023-04-28T07:15:25.529Z,101084.69
2023-04-28T07:17:52.098Z,101082.06
2023-04-28T07:20:18.716Z,101080.28
2023-04-28T07:22:45.198Z,101072.19
2023-04-28T07:25:11.815Z,101075.75
2023-04-28T07:27:38.521Z,101073.97
2023-04-28T07:30:18.572Z,101072.50
2023-04-28T07:32:52.193Z,101072.31
2023-04-28T07:35:18.730Z,101075.56
2023-04-28T07:37:45.193Z,101068.25
2023-04-28T07:40:11.779Z,101068.75
2023-04-28T07:42:38.155Z,101065.00
2023-04-28T07:45:05.537Z,101064.97
2023-04-28T07:47:31.967Z,101061.09
2023-04-28T07:50:00.607Z,101063.66
2023-04-28T07:52:27.386Z,101064.25
2023-04-28T07:54:53.981Z,101065.72
2023-04-28T07:57:20.430Z,101060.31
2023-04-28T07:59:46.832Z,101054.94
2023-04-28T08:02:14.272Z,101049.88
2023-04-28T08:04:41.346Z,101045.72
2023-04-28T08:07:09.166Z,101051.84
2023-04-28T08:09:36.189Z,101051.13
2023-04-28T08:12:02.602Z,101048.13
2023-04-28T08:14:29.476Z,101044.22
2023-04-28T08:16:56.806Z,101037.66
2023-04-28T08:19:23.230Z,101045.47
2023-04-28T08:21:49.653Z,101051.63
2023-04-28T08:24:16.259Z,101046.13
2023-04-28T08:26:42.851Z,101059.94
2023-04-28T08:29:09.276Z,101055.72
2023-04-28T08:31:35.780Z,101048.75
2023-04-28T08:34:02.641Z,101057.09
2023-04-28T08:36:32.472Z,101052.38
2023-04-28T08:38:59.674Z,101053.34
2023-04-28T08:41:29.977Z,101054.63
2023-04-28T08:43:56.797Z,101046.03
2023-04-28T08:46:24.012Z,101057.53
2023-04-28T08:48:52.129Z,101045.72
2023-04-28T08:51:29.703Z,101050.66
2023-04-28T08:54:22.364Z,101052.84
2023-04-28T08:56:46.486Z,101047.63
2023-04-28T08:59:13.284Z,101042.88
2023-04-28T09:01:39.803Z,101038.31
2023-04-28T09:04:06.759Z,101036.84
2023-04-28T09:06:37.550Z,101037.13
2023-04-28T09:09:25.475Z,101025.16
2023-04-28T09:12:02.361Z,101030.56
2023-04-28T09:14:30.017Z,101029.31
2023-04-28T09:16:56.747Z,101026.34
2023-04-28T09:19:23.344Z,101031.03
2023-04-28T09:21:52.736Z,101012.88
2023-04-28T09:24:33.498Z,101025.81
2023-04-28T09:27:04.543Z,101033.56
2023-04-28T09:29:31.787Z,101036.63
2023-04-28T09:32:18.639Z,101030.41
2023-04-28T09:34:52.142Z,101033.81
2023-04-28T09:37:20.301Z,101029.50
2023-04-28T09:39:56.045Z,101019.69
2023-04-28T09:42:36.372Z,101018.78
2023-04-28T09:45:07.041Z,101022.50
2023-04-28T09:47:36.177Z,101018.06
2023-04-28T09:50:05.058Z,101013.94
2023-04-28T09:52:33.182Z,101013.41
2023-04-28T09:55:01.898Z,101019.88
2023-04-28T09:57:32.365Z,101018.69
2023-04-28T09:59:59.316Z,101015.44
2023-04-28T10:05:03.485Z,101016.06
2023-04-28T10:07:34.999Z,101017.63
2023-04-28T10:10:02.056Z,101004.22
2023-04-28T10:12:28.675Z,101016.06
2023-04-28T10:14:55.095Z,101013.91
2023-04-28T10:17:22.554Z,101005.63
2023-04-28T10:19:52.895Z,101003.13
2023-04-28T10:22:59.821Z,101008.53
2023-04-28T10:25:27.216Z,101009.97
2023-04-28T10:27:53.880Z,101014.28
2023-04-28T10:30:28.184Z,101006.75
2023-04-28T10:33:13.761Z,101013.06
2023-04-28T10:35:42.933Z,101012.28
2023-04-28T10:38:14.064Z,101007.69
2023-04-28T10:40:44.747Z,101009.19
2023-04-28T10:43:12.936Z,101016.38
2023-04-28T10:45:56.400Z,101009.75
2023-04-28T10:48:46.436Z,101014.16
2023-04-28T10:51:15.848Z,101019.31
2023-04-28T10:53:45.625Z,101011.56
2023-04-28T10:56:18.510Z,101015.16
2023-04-28T10:58:55.401Z,101017.00
2023-04-28T11:01:22.067Z,101015.66
2023-04-28T11:03:52.411Z,101018.41
2023-04-28T11:06:23.805Z,101010.00
2023-04-28T11:08:50.281Z,101014.16
2023-04-28T11:11:21.774Z,101006.91
2023-04-28T11:13:49.242Z,101006.03
2023-04-28T11:16:26.486Z,101005.84
2023-04-28T11:18:59.214Z,100999.25
2023-04-28T11:21:28.246Z,100985.25
2023-04-28T11:23:55.041Z,100991.88
2023-04-28T11:26:21.497Z,100987.06
2023-04-28T11:28:55.923Z,100989.78
2023-04-28T11:31:24.298Z,100986.66
2023-04-28T11:34:08.073Z,100984.41
2023-04-28T11:36:36.637Z,100991.03
2023-04-28T11:39:08.218Z,100980.56
2023-04-28T11:41:36.358Z,100982.16
2023-04-28T11:44:17.566Z,100978.72
2023-04-28T11:46:56.139Z,100993.25
2023-04-28T11:49:29.160Z,100998.22
2023-04-28T11:51:56.711Z,100988.66
2023-04-28T11:54:28.031Z,101002.31
2023-04-28T11:56:55.831Z,101000.56
2023-04-28T11:59:30.989Z,101001.72
2023-04-28T12:01:59.504Z,100999.81
2023-04-28T12:04:37.809Z,101004.41
2023-04-28T12:07:11.921Z,101005.47
2023-04-28T12:09:40.063Z,101007.44
2023-04-28T12:12:11.966Z,101008.50
2023-04-28T12:14:59.344Z,101009.91
2023-04-28T12:17:38.033Z,101007.19
2023-04-28T12:20:10.030Z,101006.88
2023-04-28T12:22:47.508Z,100998.03
2023-04-28T12:25:16.605Z,101013.28
2023-04-28T12:28:05.519Z,101010.47
2023-04-28T12:30:41.745Z,101010.03
2023-04-28T12:33:27.630Z,101014.94
2023-04-28T12:35:55.431Z,101015.63
2023-04-28T12:38:25.614Z,101012.72
2023-04-28T12:40:52.833Z,101019.47
2023-04-28T12:43:19.385Z,100993.25
2023-04-28T12:45:45.895Z,101016.13
2023-04-28T12:48:12.353Z,101018.50
2023-04-28T12:50:38.948Z,101014.97
2023-04-28T12:53:05.417Z,101015.50
2023-04-28T12:55:32.096Z,101019.00
2023-04-28T12:57:59.382Z,101009.31
2023-04-28T13:00:26.384Z,101012.09
2023-04-28T13:02:53.364Z,101018.03
2023-04-28T13:05:19.998Z,101018.13
2023-04-28T13:07:47.468Z,101019.47
2023-04-28T13:10:13.956Z,101020.63
2023-04-28T13:12:41.259Z,101026.47
2023-04-28T13:15:08.473Z,101019.38
2023-04-28T13:17:35.269Z,101031.25
2023-04-28T13:20:03.675Z,101020.63
2023-04-28T13:22:30.150Z,101023.41
2023-04-28T13:24:56.591Z,101026.66
2023-04-28T13:27:23.191Z,101030.50
2023-04-28T13:29:49.620Z,101019.31
2023-04-28T13:32:16.364Z,101031.06
2023-04-28T13:34:43.073Z,101026.22
2023-04-28T13:37:09.694Z,101039.00
2023-04-28T13:39:36.241Z,101038.25
2023-04-28T13:42:02.677Z,101026.94
2023-04-28T13:44:29.089Z,101033.78
2023-04-28T13:46:56.453Z,101032.63
2023-04-28T13:49:23.776Z,101044.69
2023-04-28T13:51:50.314Z,101043.22
2023-04-28T13:54:16.805Z,101037.94
2023-04-28T13:56:43.209Z,101033.72
2023-04-28T13:59:09.680Z,101040.13
2023-04-28T14:01:36.362Z,101029.69
2023-04-28T14:04:03.385Z,101035.06
2023-04-28T14:06:30.033Z,101036.25
2023-04-28T14:08:56.966Z,101037.69
2023-04-28T14:11:23.360Z,101044.09
2023-04-28T14:13:49.803Z,101039.03
2023-04-28T14:16:16.490Z,101044.06
2023-04-28T14:18:42.913Z,101044.88
2023-04-28T14:21:09.380Z,101050.56
2023-04-28T14:23:35.863Z,101045.88
2023-04-28T14:26:02.471Z,101041.81
2023-04-28T14:28:29.068Z,101046.13
2023-04-28T14:30:55.557Z,101047.22
2023-04-28T14:33:22.200Z,101048.19
2023-04-28T14:35:48.796Z,101052.72
2023-04-28T14:38:15.257Z,101056.56
2023-04-28T14:40:43.010Z,101046.50
2023-04-28T14:43:09.488Z,101047.03
2023-04-28T14:45:37.061Z,101050.72
2023-04-28T14:48:03.849Z,101050.34
2023-04-28T14:50:30.678Z,101049.91
2023-04-28T14:52:59.944Z,101053.97
2023-04-28T14:55:26.393Z,101059.16
2023-04-28T14:57:52.950Z,101055.66
2023-04-28T15:00:19.477Z,101062.22
2023-04-28T15:02:46.052Z,101056.72
2023-04-28T15:05:12.722Z,101056.19
2023-04-28T15:07:39.278Z,101044.50
2023-04-28T15:10:06.216Z,101057.63
2023-04-28T15:12:34.243Z,101056.81
2023-04-28T15:15:00.744Z,101063.47
2023-04-28T15:17:27.853Z,101058.72
2023-04-28T15:19:54.263Z,101065.28
2023-04-28T15:22:21.819Z,101064.38
2023-04-28T15:24:48.653Z,101066.44
2023-04-28T15:27:15.351Z,101056.91
2023-04-28T15:29:41.935Z,101057.88
2023-04-28T15:32:08.644Z,101063.53
2023-04-28T15:34:35.221Z,101061.50
2023-04-28T15:37:03.719Z,101062.56
2023-04-28T15:39:30.213Z,101071.16
2023-04-28T15:41:56.602Z,101066.53
2023-04-28T15:44:23.205Z,101066.69
2023-04-28T15:46:51.787Z,101075.16
2023-04-28T15:49:18.331Z,101079.91
2023-04-28T15:51:45.588Z,101072.91
2023-04-28T15:54:12.015Z,101085.53
2023-04-28T15:56:38.435Z,101071.88
2023-04-28T15:59:04.943Z,101072.66
2023-04-28T16:01:31.404Z,101075.97
2023-04-28T16:03:58.154Z,101079.69
2023-04-28T16:06:25.579Z,101097.94
2023-04-28T16:08:52.130Z,101086.00
2023-04-28T16:11:20.324Z,101089.06
2023-04-28T16:13:47.089Z,101090.38
2023-04-28T16:16:13.648Z,101095.44
2023-04-28T16:18:40.118Z,101097.94
2023-04-28T16:21:06.742Z,101092.00
2023-04-28T16:23:33.506Z,101093.53
2023-04-28T16:26:00.014Z,101108.38
2023-04-28T16:28:26.998Z,101102.63
2023-04-28T16:30:53.445Z,101116.81
2023-04-28T16:33:19.866Z,101117.31
2023-04-28T16:35:53.791Z,101112.56
2023-04-28T16:38:20.678Z,101105.84
2023-04-28T16:40:47.347Z,101118.06
2023-04-28T16:43:14.280Z,101117.09
2023-04-28T16:45:41.362Z,101131.41
2023-04-28T16:48:08.422Z,101126.78
2023-04-28T16:50:34.912Z,101102.56
2023-04-28T16:53:01.318Z,101121.31
2023-04-28T16:55:27.755Z,101129.09
2023-04-28T16:57:54.200Z,101136.78
2023-04-28T17:00:21.221Z,101132.03
2023-04-28T17:02:47.721Z,101135.50
2023-04-28T17:05:14.329Z,101129.72
2023-04-28T17:07:41.231Z,101132.66
2023-04-28T17:10:08.203Z,101141.25
2023-04-28T17:12:34.645Z,101136.72
2023-04-28T17:15:01.352Z,101139.78
2023-04-28T17:17:29.213Z,101138.34
2023-04-28T17:19:56.933Z,101137.38
2023-04-28T17:22:23.373Z,101141.25
2023-04-28T17:24:49.823Z,101147.81
2023-04-28T17:27:16.240Z,101146.97
2023-04-28T17:29:43.557Z,101151.91
2023-04-28T17:32:11.030Z,101155.66
2023-04-28T17:34:37.489Z,101146.78
2023-04-28T17:37:04.034Z,101161.63
2023-04-28T17:39:30.484Z,101157.69
2023-04-28T17:41:58.116Z,101159.81
2023-04-28T17:44:24.595Z,101158.63
2023-04-28T17:46:51.278Z,101161.41
2023-04-28T17:49:17.788Z,101161.09
2023-04-28T17:51:44.258Z,101155.59
2023-04-28T17:54:10.809Z,101155.47
2023-04-28T17:56:38.270Z,101157.56
2023-04-28T17:59:05.183Z,101161.72
2023-04-28T18:01:35.213Z,101161.34
2023-04-28T18:04:02.027Z,101160.69
2023-04-28T18:06:29.857Z,101161.81
2023-04-28T18:08:56.352Z,101170.31
2023-04-28T18:11:23.377Z,101170.13
2023-04-28T18:13:50.138Z,101160.59
2023-04-28T18:16:16.981Z,101137.72
2023-04-28T18:18:43.763Z,101171.00
2023-04-28T18:21:10.282Z,101177.31
2023-04-28T18:23:36.736Z,101176.38
2023-04-28T18:26:03.430Z,101176.25
2023-04-28T18:28:29.941Z,101185.44
2023-04-28T18:30:56.308Z,101177.38
2023-04-28T18:33:25.835Z,101182.09
2023-04-28T18:36:00.339Z,101194.47
2023-04-28T18:38:26.941Z,101194.31
2023-04-28T18:40:53.398Z,101191.56
2023-04-28T18:43:19.867Z,101188.47
2023-04-28T18:45:47.506Z,101198.03
2023-04-28T18:48:14.122Z,101189.63
2023-04-28T18:50:40.670Z,101196.28
2023-04-28T18:53:10.221Z,101198.38
2023-04-28T18:55:37.033Z,101192.38
2023-04-28T18:58:03.919Z,101204.88
2023-04-28T19:00:30.970Z,101206.19
2023-04-28T19:02:57.796Z,101201.34
2023-04-28T19:05:24.644Z,101212.38
2023-04-28T19:07:51.105Z,101216.75
2023-04-28T19:10:17.663Z,101213.66
2023-04-28T19:12:44.069Z,101228.28
2023-04-28T19:15:10.810Z,101223.41
2023-04-28T19:17:37.316Z,101234.78
2023-04-28T19:20:04.213Z,101238.53
2023-04-28T19:22:38.765Z,101240.97
2023-04-28T19:25:06.769Z,101246.97
2023-04-28T19:27:34.973Z,101237.72
2023-04-28T19:30:02.345Z,101260.63
2023-04-28T19:32:30.314Z,101255.56
2023-04-28T19:34:57.473Z,101265.31
2023-04-28T19:37:25.177Z,101273.13
2023-04-28T19:39:52.336Z,101283.81
2023-04-28T19:42:18.977Z,101284.47
2023-04-28T19:44:46.125Z,101278.31
2023-04-28T19:47:12.963Z,101289.22
2023-04-28T19:49:41.401Z,101286.94
2023-04-28T19:52:10.172Z,101279.47
2023-04-28T19:54:38.781Z,101288.00
2023-04-28T19:57:05.453Z,101285.75
2023-04-28T19:59:32.007Z,101293.50
2023-04-28T20:01:58.634Z,101299.84
2023-04-28T20:04:25.633Z,101301.66
2023-04-28T20:06:52.333Z,101297.88
2023-04-28T20:09:18.851Z,101304.19
2023-04-28T20:11:45.295Z,101306.94
2023-04-28T20:14:11.927Z,101309.25
2023-04-28T20:16:38.394Z,101310.84
2023-04-28T20:19:04.866Z,101312.44
2023-04-28T20:21:31.726Z,101318.34
2023-04-28T20:23:58.299Z,101319.59
2023-04-28T20:26:24.770Z,101320.25
2023-04-28T20:28:51.305Z,101319.94
2023-04-28T20:31:17.832Z,101329.22
2023-04-28T20:33:44.334Z,101330.19
2023-04-28T20:36:12.801Z,101329.19
2023-04-28T20:38:39.212Z,101340.53
2023-04-28T20:41:07.630Z,101339.88
2023-04-28T20:43:34.160Z,101348.09
2023-04-28T20:46:00.657Z,101354.44
2023-04-28T20:48:28.976Z,101358.03
2023-04-28T20:50:56.440Z,101364.00
2023-04-28T20:53:22.883Z,101369.06
2023-04-28T20:55:50.052Z,101359.31
2023-04-28T20:58:16.493Z,101374.13
2023-04-28T21:00:44.011Z,101377.06
2023-04-28T21:03:15.688Z,101377.81
2023-04-28T21:05:44.647Z,101381.63
2023-04-28T21:08:11.383Z,101378.44
2023-04-28T21:10:38.304Z,101390.72
2023-04-28T21:13:04.945Z,101391.19
2023-04-28T21:15:37.377Z,101392.91
2023-04-28T21:18:04.518Z,101392.16
2023-04-28T21:20:31.110Z,101396.03
2023-04-28T21:22:57.665Z,101394.06
2023-04-28T21:25:25.068Z,101397.97
2023-04-28T21:27:52.948Z,101392.69
2023-04-28T21:30:20.752Z,101403.09
2023-04-28T21:32:47.452Z,101401.25
2023-04-28T21:35:14.277Z,101391.78
2023-04-28T21:37:40.903Z,101408.31
2023-04-28T21:40:08.923Z,101406.41
2023-04-28T21:42:35.646Z,101412.03
2023-04-28T21:45:02.043Z,101417.59
2023-04-28T21:47:28.571Z,101409.44
2023-04-28T21:49:55.209Z,101417.50
2023-04-28T21:52:21.898Z,101414.56
2023-04-28T21:54:48.439Z,101421.09
2023-04-28T21:57:15.830Z,101423.16
2023-04-28T21:59:42.450Z,101425.38
2023-04-28T22:02:09.094Z,101432.78
2023-04-28T22:04:35.720Z,101427.91
2023-04-28T22:07:02.694Z,101432.72
2023-04-28T22:09:29.176Z,101429.69
2023-04-28T22:11:55.756Z,101425.75
2023-04-28T22:14:39.553Z,101440.56
2023-04-28T22:17:07.681Z,101430.84
2023-04-28T22:19:34.167Z,101431.69
2023-04-28T22:22:00.831Z,101435.75
2023-04-28T22:24:27.913Z,101424.34
2023-04-28T22:26:55.049Z,101436.00
2023-04-28T22:29:21.785Z,101433.81
2023-04-28T22:31:48.342Z,101433.91
2023-04-28T22:34:14.926Z,101436.50
2023-04-28T22:36:41.569Z,101439.47
2023-04-28T22:39:08.328Z,101446.66
2023-04-28T22:41:34.803Z,101448.72
2023-04-28T22:44:01.211Z,101444.72
2023-04-28T22:46:28.796Z,101452.13
2023-04-28T22:48:55.543Z,101453.25
2023-04-28T22:51:22.153Z,101456.59
2023-04-28T22:53:48.633Z,101458.53
2023-04-28T22:56:15.647Z,101459.47
2023-04-28T22:58:42.130Z,101473.31
2023-04-28T23:01:08.590Z,101461.56
2023-04-28T23:03:35.143Z,101460.28
2023-04-28T23:06:01.621Z,101467.13
2023-04-28T23:08:28.054Z,101467.31
2023-04-28T23:10:55.879Z,101469.44
2023-04-28T23:13:22.244Z,101465.47
2023-04-28T23:15:48.865Z,101468.59
2023-04-28T23:18:15.381Z,101468.59
2023-04-28T23:20:41.832Z,101468.38
2023-04-28T23:23:08.518Z,101473.84
2023-04-28T23:25:34.924Z,101478.75
2023-04-28T23:28:01.387Z,101484.88
2023-04-28T23:30:27.812Z,101488.81
2023-04-28T23:32:54.256Z,101482.81
2023-04-28T23:35:20.642Z,101489.66
2023-04-28T23:37:47.277Z,101491.28
2023-04-28T23:40:13.878Z,101497.25
2023-04-28T23:42:41.047Z,101500.38
2023-04-28T23:45:08.895Z,101494.53
2023-04-28T23:47:35.472Z,101504.47
2023-04-28T23:50:02.121Z,101503.81
2023-04-28T23:52:28.580Z,101503.66
2023-04-28T23:54:55.068Z,101507.06
2023-04-28T23:57:21.506Z,101512.53
2023-04-28T23:59:48.174Z,101507.97
